Overview Statistics Trail Chart Weather Telemetry Raw packets
 

This is the latest recevied weather packets stored in our database for station/object EA7OC-10. If no packets are shown the sender has not sent any weather packets the latest 10 day(s).

<< 18 19 20 21 22 23 24 >>
Time Temp. Humidity Pressure Rain* Wind** Luminosity Snow
1788167271 39.44° C 23% 1018.8 hPa - - - -
1788166371 38.89° C 23% 1018.8 hPa - - - -
1788165470 38.89° C 23% 1018.8 hPa - - - -
1788164567 38.33° C 22% 1018.8 hPa - - - -
1788163667 37.78° C 23% 1018.7 hPa - - - -
1788162767 36.67° C 23% 1018.6 hPa - - - -
1788161867 35.56° C 23% 1018.5 hPa - - - -
1788160966 33.89° C 24% 1018.4 hPa - - - -
1788160066 30.56° C 25% 1018.2 hPa - - - -
1788159166 27.22° C 25% 1018 hPa - - - -
1788158266 24.44° C 26% 1017.9 hPa - - - -
1788157366 21.11° C 24% 1017.6 hPa - - - -
1788156466 20.56° C 23% 1017.5 hPa - - - -
1788155566 20.56° C 23% 1017.4 hPa - - - -
1788154666 21.11° C 23% 1017.3 hPa - - - -
1788153766 21.11° C 23% 1017.2 hPa - - - -
1788152866 21.11° C 23% 1017.2 hPa - - - -
1788151965 21.67° C 23% 1017.2 hPa - - - -
1788151065 21.67° C 23% 1017.1 hPa - - - -
1788150165 21.67° C 23% 1017.2 hPa - - - -
1788149265 21.67° C 23% 1017.3 hPa - - - -
1788148365 21.67° C 23% 1017.4 hPa - - - -
1788147465 21.67° C 23% 1017.4 hPa - - - -
1788146565 22.22° C 22% 1017.3 hPa - - - -
1788145665 22.78° C 22% 1017.3 hPa - - - -

* Rain since midnight (hover to see other rain measurements)
** Current wind speed in m/s (hover to see current wind gust speed)